• Join FlightAware (Why Join?)
  • Login
  • US Flag 
12:51PM EDT


 

Airport Tracker/Info


-or-


 

Live Flight TrackerFlight Track Log ✈ UAL4543 ✈ 22-Apr-2013 ✈ KEWR - KDSM

Flight Track Log - Related Links

Times and Time Zones

All times are in EDT time to prevent confusion due to time zone crossing. See the UAL4543 flight status page for this flight to view local times or setup timezone preferences in your user account.

Time Position Orientation Groundspeed Altitude Reporting Facility
EDT Latitude Longitude Course Direction KTS MPH feet Rate Location/Type
10:30PM 41.0084 -74.5441 316° Northwest  Level FlightAware Approximate
10:31PM 41.0866 -74.6446 316° Northwest  Level FlightAware Approximate
10:32PM 41.1451 -74.7462 298° West  Level FlightAware Approximate
10:33PM 41.2000 -74.8659 270° West  Level FlightAware Approximate
10:34PM 41.2524 -74.9894 298° West  Level FlightAware Approximate
10:35PM 41.3072 -75.1144 304° West  Level FlightAware Approximate
10:36PM 41.3649 -75.2372 298° West  Level FlightAware Approximate
10:37PM 41.4188 -75.3631 301° West  Level FlightAware Approximate
10:38PM 41.4723 -75.4890 288° West  Level FlightAware Approximate
10:39PM 41.5134 -75.6234 294° West  Level FlightAware Approximate
10:40PM 41.5413 -75.7612 291° West  Level FlightAware Approximate
10:41PM 41.5876 -75.8919 304° West  Level FlightAware Approximate
10:42PM 41.6207 -76.0288 294° West  Level FlightAware Approximate
10:43PM 41.6651 -76.1618 294° West  Level FlightAware Approximate
10:44PM 41.6973 -76.3003 283° West  Level FlightAware Approximate
10:45PM 41.7393 -76.4345 294° West  Level FlightAware Approximate
10:46PM 41.7775 -76.5707 285° West  Level FlightAware Approximate
10:47PM 41.8079 -76.7107 291° West  Level FlightAware Approximate
10:48PM 41.8469 -76.8471 291° West  Level FlightAware Approximate
10:49PM 41.8877 -76.9826 290° West  Level FlightAware Approximate
10:50PM 41.9253 -77.1198 290° West  Level FlightAware Approximate
10:51PM 41.9627 -77.2572 290° West  Level FlightAware Approximate
10:52PM 41.9999 -77.3948 290° West  Level FlightAware Approximate
10:53PM 42.0369 -77.5326 290° West  Level FlightAware Approximate
10:54PM 42.0737 -77.6706 290° West  Level FlightAware Approximate
10:55PM 42.1103 -77.8087 290° West  Level FlightAware Approximate
10:56PM 42.1468 -77.9470 290° West  Level FlightAware Approximate
10:57PM 42.1831 -78.0854 290° West  Level FlightAware Approximate
10:58PM 42.2193 -78.2240 289° West  Level FlightAware Approximate
10:59PM 42.2553 -78.3628 289° West  Level FlightAware Approximate
11:00PM 42.2911 -78.5017 289° West  Level FlightAware Approximate
11:01PM 42.3267 -78.6407 289° West  Level FlightAware Approximate
11:02PM 42.3620 -78.7801 289° West  Level FlightAware Approximate
11:03PM 42.3970 -78.9195 289° West  Level FlightAware Approximate
11:04PM 42.4319 -79.0592 289° West  Level FlightAware Approximate
11:05PM 42.4666 -79.1990 289° West  Level FlightAware Approximate
11:06PM 42.4873 -79.3427 274° West  Level FlightAware Approximate
11:07PM 42.4948 -79.4900 274° West  Level FlightAware Approximate
11:08PM 42.5021 -79.6373 274° West  Level FlightAware Approximate
11:09PM 42.5093 -79.7846 274° West  Level FlightAware Approximate
11:10PM 42.5162 -79.9320 274° West  Level FlightAware Approximate
11:11PM 42.5230 -80.0794 274° West  Level FlightAware Approximate
11:12PM 42.5295 -80.2268 274° West  Level FlightAware Approximate
11:13PM 42.5359 -80.3742 273° West  Level FlightAware Approximate
11:14PM 42.5421 -80.5217 273° West  Level FlightAware Approximate
11:15PM 42.5481 -80.6692 273° West  Level FlightAware Approximate
11:16PM 42.5527 -80.8168 272° West  Level FlightAware Approximate
11:17PM 42.5564 -80.9645 272° West  Level FlightAware Approximate
11:18PM 42.5599 -81.1122 272° West  Level FlightAware Approximate
11:19PM 42.5633 -81.2599 272° West  Level FlightAware Approximate
11:20PM 42.5665 -81.4076 272° West  Level FlightAware Approximate
11:21PM 42.5901 -81.5518 283° West  Level FlightAware Approximate
11:22PM 42.6149 -81.6957 283° West  Level FlightAware Approximate
11:23PM 42.6395 -81.8398 283° West  Level FlightAware Approximate
11:24PM 42.6640 -81.9840 283° West  Level FlightAware Approximate
11:25PM 42.6885 -82.1283 283° West  Level FlightAware Approximate
11:26PM 42.7128 -82.2727 283° West  Level FlightAware Approximate
11:27PM 42.7369 -82.4171 283° West  Level FlightAware Approximate
11:28PM 42.7609 -82.5617 283° West  Level FlightAware Approximate
11:29PM 42.7847 -82.7064 283° West  Level FlightAware Approximate
11:30PM 42.8097 -82.8508 285° West  Level FlightAware Approximate
11:31PM 42.8372 -82.9944 285° West  Level FlightAware Approximate
11:32PM 42.8644 -83.1381 285° West  Level FlightAware Approximate
11:33PM 42.8915 -83.2820 284° West  Level FlightAware Approximate
11:34PM 42.9182 -83.4260 282° West  Level FlightAware Approximate
11:35PM 42.9412 -83.5713 282° West  Level FlightAware Approximate
11:36PM 42.9641 -83.7167 282° West  Level FlightAware Approximate
11:37PM 42.9794 -83.8640 278° West  Level FlightAware Approximate
11:38PM 42.9935 -84.0115 278° West  Level FlightAware Approximate
11:39PM 43.0075 -84.1591 277° West  Level FlightAware Approximate
11:40PM 43.0213 -84.3067 277° West  Level FlightAware Approximate
11:41PM 43.0349 -84.4545 277° West  Level FlightAware Approximate
11:42PM 43.0483 -84.6023 277° West  Level FlightAware Approximate
11:43PM 43.0615 -84.7501 277° West  Level FlightAware Approximate
11:44PM 43.0745 -84.8981 277° West  Level FlightAware Approximate
11:45PM 43.0872 -85.0461 277° West  Level FlightAware Approximate
11:46PM 43.0996 -85.1942 277° West  Level FlightAware Approximate
11:47PM 43.1118 -85.3423 276° West  Level FlightAware Approximate
11:48PM 43.1238 -85.4905 276° West  Level FlightAware Approximate
11:49PM 43.1356 -85.6388 276° West  Level FlightAware Approximate
11:50PM 43.1471 -85.7871 276° West  Level FlightAware Approximate
11:51PM 43.1586 -85.9355 276° West  Level FlightAware Approximate
11:52PM 43.1698 -86.0839 276° West  Level FlightAware Approximate
11:53PM 43.1808 -86.2324 276° West  Level FlightAware Approximate
11:54PM 43.1810 -86.3814 268° West  Level FlightAware Approximate
11:55PM 43.1779 -86.5306 268° West  Level FlightAware Approximate
11:56PM 43.1745 -86.6798 268° West  Level FlightAware Approximate
11:57PM 43.1710 -86.8290 268° West  Level FlightAware Approximate
11:58PM 43.1672 -86.9781 268° West  Level FlightAware Approximate
11:59PM 43.1603 -87.1271 266° West  Level FlightAware Approximate
12:00AM 43.1526 -87.2759 266° West  Level FlightAware Approximate
12:01AM 43.1447 -87.4247 266° West  Level FlightAware Approximate
12:02AM 43.1366 -87.5734 266° West  Level FlightAware Approximate
12:03AM 43.1313 -87.7224 268° West  Level FlightAware Approximate
12:04AM 43.1277 -87.8714 268° West  Level FlightAware Approximate
12:05AM 43.1239 -88.0205 268° West  Level FlightAware Approximate
12:06AM 43.1199 -88.1695 268° West  Level FlightAware Approximate
12:07AM 43.1067 -88.3158 247° West  Level FlightAware Approximate
12:08AM 43.0645 -88.4531 247° West  Level FlightAware Approximate
12:09AM 43.0242 -88.5915 249° West  Level FlightAware Approximate
12:10AM 42.9848 -88.7302 249° West  Level FlightAware Approximate
12:11AM 42.9453 -88.8688 249° West  Level FlightAware Approximate
12:12AM 42.9056 -89.0073 249° West  Level FlightAware Approximate
12:13AM 42.8658 -89.1455 249° West  Level FlightAware Approximate
12:14AM 42.8253 -89.2833 248° West  Level FlightAware Approximate
12:15AM 42.7845 -89.4208 248° West  Level FlightAware Approximate
12:16AM 42.7434 -89.5582 248° West  Level FlightAware Approximate
12:17AM 42.7022 -89.6953 248° West  Level FlightAware Approximate
12:18AM 42.6609 -89.8322 248° West  Level FlightAware Approximate
12:19AM 42.6193 -89.9690 248° West  Level FlightAware Approximate
12:20AM 42.5776 -90.1056 248° West  Level FlightAware Approximate
12:21AM 42.5358 -90.2420 247° West  Level FlightAware Approximate
12:22AM 42.4931 -90.3778 247° West  Level FlightAware Approximate
12:23AM 42.4502 -90.5135 247° West  Level FlightAware Approximate
12:24AM 42.4122 -90.6515 251° West  Level FlightAware Approximate
12:25AM 42.3759 -90.7905 250° West  Level FlightAware Approximate
12:26AM 42.3390 -90.9290 250° West  Level FlightAware Approximate
12:27AM 42.2955 -91.0639 246° West  Level FlightAware Approximate
12:28AM 42.2507 -91.1980 246° West  Level FlightAware Approximate
12:29AM 42.2212 -91.3390 247° West  Level FlightAware Approximate
12:30AM 42.1789 -91.4744 247° West  Level FlightAware Approximate
12:31AM 42.1390 -91.6109 251° West  Level FlightAware Approximate
12:32AM 42.1026 -91.7492 249° West  Level FlightAware Approximate
12:33AM 42.0631 -91.8858 248° West  Level FlightAware Approximate
12:34AM 42.0230 -92.0221 248° West  Level FlightAware Approximate
12:35AM 41.9825 -92.1580 248° West  Level FlightAware Approximate
12:36AM 41.9413 -92.2935 248° West  Level FlightAware Approximate
12:37AM 41.9000 -92.4289 248° West  Level FlightAware Approximate
12:38AM 41.8586 -92.5640 248° West  Level FlightAware Approximate
12:39AM 41.8170 -92.6990 248° West  Level FlightAware Approximate
12:40AM 41.7776 -92.8338 246° West  Level FlightAware Approximate
12:41AM 41.7342 -92.9675 247° West  Level FlightAware Approximate
12:42AM 41.6922 -93.1021 247° West  Level FlightAware Approximate
12:43AM 41.6503 -93.2366 248° West  Level FlightAware Approximate
12:44AM 41.6089 -93.3712 248° West  Level FlightAware Approximate
12:45AM 41.5659 -93.5048 257° West  Level FlightAware Approximate
12:46AM 41.5354 -93.6438 246° West  Level FlightAware Approximate
12:47AM 41.5333 -93.6500 246° West  Level FlightAware Approximate
12:48AM 41.5340 -93.6631 246° West  Level Estimated
12:49AM 41.5340 -93.6631 246° West  Level Estimated
12:50AM 41.5340 -93.6631 246° West  Level Estimated
12:51AM 41.5340 -93.6631 246° West  Level Estimated
12:52AM 41.5340 -93.6631 246° West  Level Estimated